createdAt,value
2023-01-30T00:01:17.429Z,100722.38
2023-01-30T00:03:21.134Z,100726.59
2023-01-30T00:05:24.619Z,100723.94
2023-01-30T00:07:29.255Z,100735.16
2023-01-30T00:09:32.553Z,100716.97
2023-01-30T00:11:35.714Z,100696.25
2023-01-30T00:13:40.690Z,100713.47
2023-01-30T00:15:44.414Z,100722.16
2023-01-30T00:17:47.537Z,100724.69
2023-01-30T00:19:50.679Z,100738.47
2023-01-30T00:21:53.915Z,100705.66
2023-01-30T00:23:59.866Z,100702.16
2023-01-30T00:26:03.799Z,100692.66
2023-01-30T00:28:07.095Z,100680.53
2023-01-30T00:30:11.704Z,100673.59
2023-01-30T00:32:17.609Z,100670.13
2023-01-30T00:34:20.763Z,100655.38
2023-01-30T00:36:23.940Z,100644.09
2023-01-30T00:38:27.191Z,100647.47
2023-01-30T00:40:31.692Z,100633.59
2023-01-30T00:43:01.988Z,100635.28
2023-01-30T00:45:23.329Z,100636.97
2023-01-30T00:47:27.100Z,100609.25
2023-01-30T00:49:31.886Z,100632.50
2023-01-30T00:51:35.194Z,100603.94
2023-01-30T00:53:38.356Z,100599.56
2023-01-30T00:55:43.331Z,100592.56
2023-01-30T00:57:46.543Z,100596.84
2023-01-30T00:59:49.759Z,100589.84
2023-01-30T01:01:53.665Z,100574.19
2023-01-30T01:03:57.092Z,100580.22
2023-01-30T01:06:00.815Z,100602.56
2023-01-30T01:08:04.241Z,100582.63
2023-01-30T01:10:08.489Z,100578.22
2023-01-30T01:12:12.989Z,100583.31
2023-01-30T01:14:16.106Z,100562.50
2023-01-30T01:16:19.378Z,100561.59
2023-01-30T01:18:22.765Z,100554.59
2023-01-30T01:20:26.194Z,100546.78
2023-01-30T01:22:29.345Z,100558.81
2023-01-30T01:24:32.696Z,100558.75
2023-01-30T01:26:35.886Z,100550.09
2023-01-30T01:28:40.548Z,100542.31
2023-01-30T01:30:47.207Z,100532.72
2023-01-30T01:32:50.444Z,100533.50
2023-01-30T01:34:53.580Z,100530.00
2023-01-30T01:36:56.877Z,100529.88
2023-01-30T01:39:00.052Z,100521.19
2023-01-30T01:41:02.228Z,100526.25
2023-01-30T01:43:16.614Z,100527.09
2023-01-30T01:45:25.045Z,100513.22
2023-01-30T01:47:28.695Z,100504.53
2023-01-30T01:49:35.066Z,100500.19
2023-01-30T01:51:43.567Z,100485.47
2023-01-30T01:53:57.266Z,100496.59
2023-01-30T01:56:03.584Z,100488.81
2023-01-30T01:58:11.183Z,100493.94
2023-01-30T02:00:16.916Z,100484.47
2023-01-30T02:02:22.394Z,100474.09
2023-01-30T02:04:42.984Z,100484.47
2023-01-30T02:06:46.472Z,100463.72
2023-01-30T02:08:55.480Z,100472.28
2023-01-30T02:11:04.312Z,100472.28
2023-01-30T02:13:07.570Z,100477.47
2023-01-30T02:15:11.619Z,100466.19
2023-01-30T02:17:17.019Z,100478.25
2023-01-30T02:19:32.248Z,100466.13
2023-01-30T02:21:57.135Z,100452.25
2023-01-30T02:24:28.576Z,100453.09
2023-01-30T02:26:55.262Z,100468.66
2023-01-30T02:29:18.883Z,100454.78
2023-01-30T02:31:34.133Z,100435.72
2023-01-30T02:33:45.688Z,100437.41
2023-01-30T02:35:54.527Z,100439.09
2023-01-30T02:38:08.765Z,100433.75
2023-01-30T02:40:23.747Z,100429.34
2023-01-30T02:42:35.704Z,100420.66
2023-01-30T02:44:48.636Z,100411.06
2023-01-30T02:46:57.694Z,100412.75
2023-01-30T02:49:06.601Z,100416.09
2023-01-30T02:51:15.399Z,100417.72
2023-01-30T02:53:18.698Z,100413.28
2023-01-30T02:55:24.418Z,100409.69
2023-01-30T02:57:27.888Z,100402.69
2023-01-30T02:59:40.514Z,100394.78
2023-01-30T03:02:12.113Z,100399.81
2023-01-30T03:04:38.973Z,100384.97
2023-01-30T03:07:01.152Z,100396.88
2023-01-30T03:09:12.175Z,100390.69
2023-01-30T03:11:15.771Z,100383.69
2023-01-30T03:13:22.866Z,100383.50
2023-01-30T03:15:32.691Z,100369.56
2023-01-30T03:17:38.725Z,100360.78
2023-01-30T03:19:42.985Z,100362.47
2023-01-30T03:21:47.231Z,100365.00
2023-01-30T03:23:50.444Z,100362.31
2023-01-30T03:25:53.761Z,100361.41
2023-01-30T03:27:57.594Z,100357.84
2023-01-30T03:30:01.071Z,100358.69
2023-01-30T03:32:04.455Z,100367.22
2023-01-30T03:34:09.032Z,100350.75
2023-01-30T03:36:12.600Z,100355.00
2023-01-30T03:38:16.062Z,100346.31
2023-01-30T03:40:19.752Z,100349.69
2023-01-30T03:42:23.491Z,100333.19
2023-01-30T03:44:26.694Z,100338.31
2023-01-30T03:46:30.032Z,100331.25
2023-01-30T03:48:33.431Z,100332.09
2023-01-30T03:50:38.527Z,100323.41
2023-01-30T03:52:42.226Z,100324.25
2023-01-30T03:54:48.116Z,100331.09
2023-01-30T03:56:51.732Z,100334.53
2023-01-30T03:58:54.950Z,100346.63
2023-01-30T04:01:06.005Z,100330.97
2023-01-30T04:03:09.261Z,100323.09
2023-01-30T04:05:12.517Z,100334.31
2023-01-30T04:07:21.385Z,100314.31
2023-01-30T04:09:27.565Z,100326.31
2023-01-30T04:11:30.777Z,100322.78
2023-01-30T04:13:33.928Z,100326.16
2023-01-30T04:15:37.587Z,100338.22
2023-01-30T04:17:58.557Z,100359.75
2023-01-30T04:20:21.632Z,100347.63
2023-01-30T04:22:30.370Z,100360.53
2023-01-30T04:24:34.387Z,100348.47
2023-01-30T04:26:37.616Z,100346.78
2023-01-30T04:28:41.570Z,100348.63
2023-01-30T04:30:44.886Z,100330.50
2023-01-30T04:33:10.257Z,100326.31
2023-01-30T04:35:15.598Z,100345.41
2023-01-30T04:37:19.200Z,100338.59
2023-01-30T04:39:26.148Z,100345.53
2023-01-30T04:41:29.373Z,100340.50
2023-01-30T04:43:36.652Z,100351.81
2023-01-30T04:45:58.856Z,100326.75
2023-01-30T04:48:02.609Z,100330.28
2023-01-30T04:50:07.988Z,100334.63
2023-01-30T04:52:11.637Z,100330.28
2023-01-30T04:54:14.926Z,100320.72
2023-01-30T04:56:19.448Z,100318.06
2023-01-30T04:58:24.788Z,100326.59
2023-01-30T05:00:28.559Z,100325.69
2023-01-30T05:02:35.370Z,100333.41
2023-01-30T05:04:38.493Z,100326.47
2023-01-30T05:06:41.683Z,100331.66
2023-01-30T05:08:46.883Z,100333.34
2023-01-30T05:10:50.143Z,100334.25
2023-01-30T05:12:54.705Z,100329.06
2023-01-30T05:14:58.215Z,100324.78
2023-01-30T05:17:01.585Z,100329.13
2023-01-30T05:19:04.881Z,100336.06
2023-01-30T05:21:10.003Z,100341.34
2023-01-30T05:23:13.165Z,100323.25
2023-01-30T05:25:16.844Z,100319.88
2023-01-30T05:27:20.241Z,100319.88
2023-01-30T05:29:24.786Z,100320.88
2023-01-30T05:31:31.043Z,100324.41
2023-01-30T05:33:34.509Z,100327.09
2023-01-30T05:35:37.628Z,100327.22
2023-01-30T05:37:41.125Z,100329.06
2023-01-30T05:39:44.250Z,100324.78
2023-01-30T05:41:47.854Z,100334.41
2023-01-30T05:43:51.959Z,100331.03
2023-01-30T05:45:57.699Z,100331.19
2023-01-30T05:48:01.598Z,100334.69
2023-01-30T05:50:05.452Z,100335.69
2023-01-30T05:52:08.664Z,100329.66
2023-01-30T05:54:11.838Z,100319.41
2023-01-30T05:56:15.115Z,100318.66
2023-01-30T05:58:18.367Z,100312.78
2023-01-30T06:00:22.790Z,100308.59
2023-01-30T06:02:27.369Z,100308.66
2023-01-30T06:04:30.515Z,100308.72
2023-01-30T06:06:33.706Z,100318.34
2023-01-30T06:08:36.846Z,100320.16
2023-01-30T06:10:40.120Z,100317.72
2023-01-30T06:12:43.751Z,100318.69
2023-01-30T06:14:46.938Z,100317.94
2023-01-30T06:16:50.175Z,100318.91
2023-01-30T06:18:54.735Z,100324.25
2023-01-30T06:20:58.275Z,100326.25
2023-01-30T06:23:01.457Z,100320.28
2023-01-30T06:25:05.063Z,100336.00
2023-01-30T06:27:08.472Z,100324.91
2023-01-30T06:29:11.734Z,100328.47
2023-01-30T06:31:14.896Z,100329.53
2023-01-30T06:33:18.018Z,100324.50
2023-01-30T06:35:22.536Z,100335.00
2023-01-30T06:37:25.774Z,100328.97
2023-01-30T06:39:28.886Z,100328.22
2023-01-30T06:41:32.034Z,100341.25
2023-01-30T06:43:35.175Z,100338.66
2023-01-30T06:45:38.362Z,100338.66
2023-01-30T06:47:48.116Z,100338.66
2023-01-30T06:49:51.269Z,100326.63
2023-01-30T06:51:55.775Z,100343.09
2023-01-30T06:53:58.907Z,100344.00
2023-01-30T06:56:02.901Z,100350.16
2023-01-30T06:58:08.203Z,100351.91
2023-01-30T07:00:14.439Z,100346.72
2023-01-30T07:02:17.705Z,100343.28
2023-01-30T07:04:20.950Z,100355.41
2023-01-30T07:06:24.315Z,100350.22
2023-01-30T07:08:28.828Z,100353.72
2023-01-30T07:10:32.614Z,100351.13
2023-01-30T07:12:36.232Z,100346.66
2023-01-30T07:14:39.601Z,100348.28
2023-01-30T07:16:42.820Z,100349.81
2023-01-30T07:18:46.011Z,100340.19
2023-01-30T07:20:49.795Z,100334.09
2023-01-30T07:22:53.566Z,100337.53
2023-01-30T07:24:58.289Z,100345.38
2023-01-30T07:27:04.630Z,100336.69
2023-01-30T07:29:07.871Z,100338.38
2023-01-30T07:31:11.149Z,100346.97
2023-01-30T07:33:14.652Z,100325.41
2023-01-30T07:35:18.209Z,100334.03
2023-01-30T07:37:21.706Z,100337.47
2023-01-30T07:39:25.749Z,100330.44
2023-01-30T07:41:30.535Z,100342.50
2023-01-30T07:43:36.419Z,100331.22
2023-01-30T07:45:41.845Z,100328.56
2023-01-30T07:47:45.126Z,100347.41
2023-01-30T07:49:48.764Z,100339.50
2023-01-30T07:51:52.246Z,100364.38
2023-01-30T07:53:56.020Z,100339.13
2023-01-30T07:56:02.667Z,100319.06
2023-01-30T07:58:11.681Z,100341.22
2023-01-30T08:00:17.433Z,100332.38
2023-01-30T08:02:22.390Z,100338.19
2023-01-30T08:04:25.901Z,100342.47
2023-01-30T08:06:31.094Z,100332.84
2023-01-30T08:08:35.040Z,100331.94
2023-01-30T08:10:38.568Z,100330.13
2023-01-30T08:12:42.741Z,100336.16
2023-01-30T08:14:47.619Z,100349.84
2023-01-30T08:16:52.367Z,100335.97
2023-01-30T08:18:56.064Z,100342.91
2023-01-30T08:21:02.837Z,100347.19
2023-01-30T08:23:06.966Z,100369.69
2023-01-30T08:25:10.491Z,100355.88
2023-01-30T08:27:13.984Z,100349.78
2023-01-30T08:29:17.377Z,100344.38
2023-01-30T08:31:22.087Z,100342.47
2023-01-30T08:33:26.361Z,100350.03
2023-01-30T08:35:29.598Z,100351.66
2023-01-30T08:37:32.792Z,100351.50
2023-01-30T08:39:37.274Z,100353.97
2023-01-30T08:41:43.136Z,100365.09
2023-01-30T08:43:46.689Z,100356.38
2023-01-30T08:45:50.122Z,100357.97
2023-01-30T08:47:54.774Z,100359.59
2023-01-30T08:49:58.091Z,100356.84
2023-01-30T08:52:05.078Z,100361.97
2023-01-30T08:54:08.949Z,100344.56
2023-01-30T08:56:12.122Z,100339.28
2023-01-30T08:58:15.748Z,100346.94
2023-01-30T09:00:20.535Z,100350.97
2023-01-30T09:02:23.805Z,100340.25
2023-01-30T09:04:30.616Z,100346.06
2023-01-30T09:06:34.169Z,100353.63
2023-01-30T09:08:37.650Z,100345.78
2023-01-30T09:10:41.281Z,100359.59
2023-01-30T09:12:44.599Z,100346.63
2023-01-30T09:14:47.923Z,100352.72
2023-01-30T09:16:55.592Z,100345.84
2023-01-30T09:18:59.061Z,100360.44
2023-01-30T09:21:07.378Z,100349.06
2023-01-30T09:23:13.138Z,100345.53
2023-01-30T09:25:19.486Z,100373.19
2023-01-30T09:27:22.703Z,100324.59
2023-01-30T09:29:26.450Z,100331.47
2023-01-30T09:31:29.971Z,100322.00
2023-01-30T09:33:33.275Z,100305.50
2023-01-30T09:35:36.800Z,100325.28
2023-01-30T09:37:48.342Z,100311.19
2023-01-30T09:39:51.412Z,100313.56
2023-01-30T09:42:16.228Z,100309.88
2023-01-30T09:44:42.579Z,100314.78
2023-01-30T09:46:53.956Z,100326.53
2023-01-30T09:49:02.656Z,100304.47
2023-01-30T09:51:23.083Z,100319.16
2023-01-30T09:53:35.319Z,100316.63
2023-01-30T09:55:41.943Z,100347.13
2023-01-30T09:57:46.625Z,100327.53
2023-01-30T09:59:59.162Z,100339.22
2023-01-30T10:02:25.541Z,100325.94
2023-01-30T10:04:34.564Z,100333.63
2023-01-30T10:06:45.727Z,100325.72
2023-01-30T10:08:57.655Z,100325.53
2023-01-30T10:11:12.955Z,100309.97
2023-01-30T10:13:32.155Z,100319.41
2023-01-30T10:15:50.666Z,100313.31
2023-01-30T10:18:09.420Z,100317.56
2023-01-30T10:20:33.129Z,100294.00
2023-01-30T10:22:47.537Z,100286.06
2023-01-30T10:25:00.357Z,100265.88
2023-01-30T10:27:04.999Z,100285.19
2023-01-30T10:29:17.424Z,100278.56
2023-01-30T10:31:24.050Z,100281.31
2023-01-30T10:33:33.233Z,100259.72
2023-01-30T10:35:39.648Z,100263.09
2023-01-30T10:37:47.689Z,100268.13
2023-01-30T10:40:00.610Z,100264.34
2023-01-30T10:42:11.799Z,100255.22
2023-01-30T10:44:18.533Z,100261.50
2023-01-30T10:46:36.728Z,100256.66
2023-01-30T10:48:56.363Z,100276.19
2023-01-30T10:51:04.482Z,100289.78
2023-01-30T10:53:16.848Z,100273.28
2023-01-30T10:55:37.134Z,100289.78
2023-01-30T10:57:52.145Z,100281.38
2023-01-30T11:00:02.773Z,100384.34
2023-01-30T11:02:22.771Z,100350.16
2023-01-30T11:04:32.292Z,100342.78
2023-01-30T11:06:36.690Z,100330.31
2023-01-30T11:08:40.091Z,100338.59
2023-01-30T11:10:44.764Z,100316.59
2023-01-30T11:12:47.990Z,100338.50
2023-01-30T11:14:53.105Z,100331.00
2023-01-30T11:16:57.783Z,100343.31
2023-01-30T11:19:19.670Z,100356.41
2023-01-30T11:21:32.064Z,100335.91
2023-01-30T11:23:43.730Z,100340.31
2023-01-30T11:26:09.100Z,100340.38
2023-01-30T11:28:17.270Z,100330.00
2023-01-30T11:30:23.251Z,100347.25
2023-01-30T11:32:28.871Z,100335.97
2023-01-30T11:34:32.234Z,100321.19
2023-01-30T11:36:36.831Z,100333.25
2023-01-30T11:38:55.534Z,100325.31
2023-01-30T11:41:17.402Z,100332.94
2023-01-30T11:43:27.225Z,100328.53
2023-01-30T11:45:35.796Z,100330.88
2023-01-30T11:47:43.243Z,100327.25
2023-01-30T11:49:57.579Z,100323.75
2023-01-30T11:52:08.714Z,100311.56
2023-01-30T11:54:15.858Z,100327.09
2023-01-30T11:56:25.142Z,100313.09
2023-01-30T11:58:32.874Z,100297.25
2023-01-30T12:00:40.811Z,100306.50
2023-01-30T12:02:46.481Z,100287.25
2023-01-30T12:04:54.065Z,100281.84
2023-01-30T12:07:08.930Z,100289.28
2023-01-30T12:09:33.645Z,100288.69
2023-01-30T12:11:45.867Z,100268.19
2023-01-30T12:13:50.281Z,100274.69
2023-01-30T12:16:02.227Z,100271.72
2023-01-30T12:18:13.329Z,100283.56
2023-01-30T12:20:26.292Z,100280.03
2023-01-30T12:22:34.846Z,100285.38
2023-01-30T12:24:43.517Z,100303.75
2023-01-30T12:26:53.194Z,100357.69
2023-01-30T12:29:03.952Z,100316.56
2023-01-30T12:31:12.222Z,100338.44
2023-01-30T12:35:24.786Z,100311.53
2023-01-30T12:37:41.736Z,100318.38
2023-01-30T12:39:56.061Z,100327.09
2023-01-30T12:42:25.325Z,100315.72
2023-01-30T12:44:44.781Z,100318.91
2023-01-30T12:47:08.767Z,100317.94
2023-01-30T12:49:30.252Z,100320.47
2023-01-30T12:51:50.187Z,100316.94
2023-01-30T12:54:04.646Z,100325.50
2023-01-30T12:56:34.889Z,100329.78
2023-01-30T12:58:46.811Z,100333.13
2023-01-30T13:01:07.274Z,100345.06
2023-01-30T13:03:23.767Z,100342.31
2023-01-30T13:05:41.487Z,100325.59
2023-01-30T13:07:55.034Z,100353.84
2023-01-30T13:10:10.032Z,100345.78
2023-01-30T13:12:22.286Z,100333.41
2023-01-30T13:14:35.616Z,100327.09
2023-01-30T13:16:52.562Z,100326.69
2023-01-30T13:18:59.977Z,100324.69
2023-01-30T13:21:11.811Z,100325.25
2023-01-30T13:23:19.105Z,100334.41
2023-01-30T13:25:32.111Z,100363.50
2023-01-30T13:27:40.025Z,100337.28
2023-01-30T13:29:45.588Z,100326.66
2023-01-30T13:31:52.901Z,100337.81
2023-01-30T13:34:05.593Z,100342.19
2023-01-30T13:36:15.879Z,100344.00
2023-01-30T13:38:22.363Z,100346.84
2023-01-30T13:40:28.881Z,100349.66
2023-01-30T13:42:46.429Z,100360.19
2023-01-30T13:44:53.103Z,100353.31
2023-01-30T13:46:58.925Z,100354.16
2023-01-30T13:49:10.316Z,100350.56
2023-01-30T13:51:33.375Z,100368.47
2023-01-30T13:53:45.214Z,100435.69
2023-01-30T13:55:53.144Z,100400.84
2023-01-30T13:58:03.136Z,100401.56
2023-01-30T14:00:29.458Z,100413.44
2023-01-30T14:02:32.670Z,100419.31
2023-01-30T14:04:47.519Z,100405.41
2023-01-30T14:06:50.695Z,100414.13
2023-01-30T14:08:59.279Z,100435.75
2023-01-30T14:11:03.277Z,100428.88
2023-01-30T14:13:07.480Z,100421.00
2023-01-30T14:15:25.588Z,100434.00
2023-01-30T14:17:31.035Z,100453.88
2023-01-30T14:19:38.388Z,100459.06
2023-01-30T14:21:41.712Z,100451.19
2023-01-30T14:23:57.148Z,100473.66
2023-01-30T14:26:00.850Z,100481.41
2023-01-30T14:28:51.977Z,100462.28
2023-01-30T14:30:58.971Z,100477.72
2023-01-30T14:33:04.691Z,100481.03
2023-01-30T14:35:22.619Z,100523.38
2023-01-30T14:37:48.503Z,100498.06
2023-01-30T14:39:55.823Z,100528.16
2023-01-30T14:42:25.503Z,100546.22
2023-01-30T14:44:56.886Z,100534.75
2023-01-30T14:47:00.251Z,100549.38
2023-01-30T14:49:29.285Z,100558.00
2023-01-30T14:51:37.090Z,100563.97
2023-01-30T14:53:52.067Z,100559.53
2023-01-30T14:56:02.027Z,100557.72
2023-01-30T14:58:06.183Z,100571.47
2023-01-30T15:00:19.957Z,100562.75
2023-01-30T15:02:27.297Z,100571.41
2023-01-30T15:04:34.967Z,100586.09
2023-01-30T15:06:38.409Z,100590.44
2023-01-30T15:08:44.747Z,100596.50
2023-01-30T15:11:09.709Z,100586.94
2023-01-30T15:13:42.701Z,100621.56
2023-01-30T15:15:57.132Z,100621.50
2023-01-30T15:18:24.345Z,100634.56
2023-01-30T15:20:40.741Z,100652.72
2023-01-30T15:23:00.307Z,100656.22
2023-01-30T15:25:23.645Z,100663.25
2023-01-30T15:27:33.880Z,100659.88
2023-01-30T15:30:12.570Z,100673.78
2023-01-30T15:32:19.317Z,100680.81
2023-01-30T15:34:23.440Z,100675.75
2023-01-30T15:36:31.339Z,100689.69
2023-01-30T15:38:35.665Z,100701.91
2023-01-30T15:40:41.920Z,100697.69
2023-01-30T15:42:45.807Z,100707.25
2023-01-30T15:44:59.163Z,100740.28
2023-01-30T15:47:23.649Z,100716.09
2023-01-30T15:49:44.726Z,100730.78
2023-01-30T15:51:49.366Z,100732.59
2023-01-30T15:53:52.607Z,100744.84
2023-01-30T15:55:56.423Z,100739.72
2023-01-30T15:58:02.304Z,100764.19
2023-01-30T16:00:08.473Z,100759.03
2023-01-30T16:02:24.883Z,100764.38
2023-01-30T16:04:29.377Z,100778.41
2023-01-30T16:06:34.237Z,100787.13
2023-01-30T16:08:38.763Z,100791.63
2023-01-30T16:10:46.759Z,100785.56
2023-01-30T16:12:52.902Z,100788.31
2023-01-30T16:15:03.134Z,100794.41
2023-01-30T16:17:15.735Z,100786.69
2023-01-30T16:19:28.210Z,100791.09
2023-01-30T16:21:35.288Z,100808.47
2023-01-30T16:23:43.441Z,100811.06
2023-01-30T16:25:48.916Z,100822.38
2023-01-30T16:27:53.722Z,100811.22
2023-01-30T16:30:00.727Z,100819.06
2023-01-30T16:32:13.119Z,100825.09
2023-01-30T16:34:31.155Z,100859.78
2023-01-30T16:36:40.505Z,100839.00
2023-01-30T16:38:46.597Z,100832.13
2023-01-30T16:40:49.921Z,100832.25
2023-01-30T16:42:58.579Z,100833.22
2023-01-30T16:45:35.189Z,100848.09
2023-01-30T16:47:38.877Z,100850.03
2023-01-30T16:49:48.985Z,100870.94
2023-01-30T16:52:02.220Z,100885.84
2023-01-30T16:54:18.407Z,100874.72
2023-01-30T16:56:21.911Z,100905.16
2023-01-30T16:58:32.318Z,100905.28
2023-01-30T17:00:38.130Z,100905.34
2023-01-30T17:02:43.151Z,100919.31
2023-01-30T17:04:46.362Z,100935.00
2023-01-30T17:06:56.524Z,100929.88
2023-01-30T17:09:02.283Z,100938.50
2023-01-30T17:11:07.272Z,100923.84
2023-01-30T17:13:31.245Z,100928.97
2023-01-30T17:15:36.264Z,100954.81
2023-01-30T17:17:39.578Z,100951.31
2023-01-30T17:19:42.814Z,100951.31
2023-01-30T17:21:50.538Z,100973.78
2023-01-30T17:23:56.193Z,100965.09
2023-01-30T17:25:59.384Z,100977.16
2023-01-30T17:28:03.936Z,100987.53
2023-01-30T17:30:14.315Z,100998.84
2023-01-30T17:32:17.653Z,100986.75
2023-01-30T17:34:22.688Z,100991.16
2023-01-30T17:36:28.456Z,101000.78
2023-01-30T17:38:31.568Z,101002.56
2023-01-30T17:40:37.269Z,101000.88
2023-01-30T17:42:40.483Z,101000.09
2023-01-30T17:44:45.232Z,100993.25
2023-01-30T17:46:50.264Z,101015.78
2023-01-30T17:48:53.387Z,101001.16
2023-01-30T17:50:56.536Z,100981.34
2023-01-30T17:52:59.685Z,100995.28
2023-01-30T17:55:02.824Z,100996.25
2023-01-30T17:57:09.722Z,101006.75
2023-01-30T17:59:15.381Z,101002.50
2023-01-30T18:01:20.006Z,100992.13
2023-01-30T18:03:23.212Z,100991.34
2023-01-30T18:05:26.588Z,100987.84
2023-01-30T18:07:30.683Z,100992.19
2023-01-30T18:09:33.789Z,101014.69
2023-01-30T18:11:37.062Z,101016.44
2023-01-30T18:13:40.600Z,101020.78
2023-01-30T18:15:43.824Z,101013.00
2023-01-30T18:17:50.355Z,101022.59
2023-01-30T18:19:54.987Z,101020.09
2023-01-30T18:21:58.527Z,101019.38
2023-01-30T18:24:02.159Z,101035.94
2023-01-30T18:26:05.833Z,101024.81
2023-01-30T18:28:11.691Z,101020.59
2023-01-30T18:30:17.665Z,101047.50
2023-01-30T18:32:21.253Z,101038.13
2023-01-30T18:34:25.749Z,101065.91
2023-01-30T18:36:29.053Z,101057.34
2023-01-30T18:38:32.299Z,101081.59
2023-01-30T18:40:35.465Z,101061.78
2023-01-30T18:42:38.655Z,101068.81
2023-01-30T18:44:41.824Z,101065.41
2023-01-30T18:46:45.012Z,101068.97
2023-01-30T18:48:48.444Z,101075.06
2023-01-30T18:50:52.932Z,101080.34
2023-01-30T18:52:56.136Z,101073.47
2023-01-30T18:54:59.329Z,101096.81
2023-01-30T18:57:02.520Z,101095.91
2023-01-30T18:59:07.130Z,101091.47
2023-01-30T19:01:12.491Z,101093.16
2023-01-30T19:03:17.408Z,101093.91
2023-01-30T19:05:20.995Z,101115.41
2023-01-30T19:07:25.508Z,101136.97
2023-01-30T19:09:28.728Z,101107.53
2023-01-30T19:11:49.659Z,101115.31
2023-01-30T19:13:53.500Z,101121.41
2023-01-30T19:15:59.211Z,101124.91
2023-01-30T19:18:02.446Z,101130.97
2023-01-30T19:20:10.881Z,101137.06
2023-01-30T19:22:14.354Z,101142.41
2023-01-30T19:24:19.706Z,101140.81
2023-01-30T19:26:23.983Z,101141.75
2023-01-30T19:28:27.520Z,101160.91
2023-01-30T19:30:31.741Z,101154.06
2023-01-30T19:32:35.362Z,101143.78
2023-01-30T19:34:38.571Z,101159.41
2023-01-30T19:36:41.682Z,101173.38
2023-01-30T19:38:46.849Z,101162.28
2023-01-30T19:40:51.350Z,101170.16
2023-01-30T19:42:56.832Z,101162.47
2023-01-30T19:45:02.945Z,101184.06
2023-01-30T19:47:06.247Z,101191.88
2023-01-30T19:49:09.481Z,101191.03
2023-01-30T19:51:14.503Z,101200.56
2023-01-30T19:53:17.925Z,101197.97
2023-01-30T19:55:21.246Z,101215.28
2023-01-30T19:57:25.766Z,101209.31
2023-01-30T19:59:28.889Z,101212.81
2023-01-30T20:01:36.966Z,101221.47
2023-01-30T20:03:41.375Z,101225.91
2023-01-30T20:05:45.269Z,101232.03
2023-01-30T20:07:49.785Z,101245.91
2023-01-30T20:09:53.118Z,101237.31
2023-01-30T20:11:56.309Z,101228.75
2023-01-30T20:14:01.425Z,101237.44
2023-01-30T20:16:06.614Z,101236.63
2023-01-30T20:18:09.864Z,101236.63
2023-01-30T20:20:13.555Z,101236.63
2023-01-30T20:22:16.757Z,101234.84
2023-01-30T20:24:20.359Z,101231.34
2023-01-30T20:26:25.474Z,101222.69
2023-01-30T20:28:29.189Z,101237.31
2023-01-30T20:30:33.891Z,101238.16
2023-01-30T20:32:37.280Z,101251.09
2023-01-30T20:34:40.558Z,101252.78
2023-01-30T20:36:43.876Z,101269.22
2023-01-30T20:38:49.025Z,101278.78
2023-01-30T20:40:52.338Z,101289.16
2023-01-30T20:42:55.477Z,101287.50
2023-01-30T20:44:58.661Z,101298.75
2023-01-30T20:47:03.603Z,101291.88
2023-01-30T20:49:06.753Z,101297.94
2023-01-30T20:51:12.520Z,101302.31
2023-01-30T20:53:15.665Z,101308.41
2023-01-30T20:55:19.407Z,101298.06
2023-01-30T20:57:22.639Z,101308.50
2023-01-30T20:59:27.297Z,101317.16
2023-01-30T21:01:30.929Z,101311.16
2023-01-30T21:03:35.638Z,101313.75
2023-01-30T21:05:38.776Z,101315.53
2023-01-30T21:07:42.159Z,101317.31
2023-01-30T21:09:45.432Z,101315.72
2023-01-30T21:11:49.940Z,101331.34
2023-01-30T21:13:53.147Z,101329.75
2023-01-30T21:16:05.714Z,101331.53
2023-01-30T21:18:08.911Z,101325.59
2023-01-30T21:20:13.824Z,101329.09
2023-01-30T21:22:16.959Z,101330.94
2023-01-30T21:24:22.551Z,101325.84
2023-01-30T21:26:28.021Z,101321.59
2023-01-30T21:28:32.049Z,101323.38
2023-01-30T21:30:37.031Z,101326.84
2023-01-30T21:32:40.373Z,101351.03
2023-01-30T21:34:43.579Z,101338.97
2023-01-30T21:37:08.877Z,101337.28
2023-01-30T21:39:31.823Z,101345.06
2023-01-30T21:41:55.324Z,101343.28
2023-01-30T21:43:58.521Z,101354.47
2023-01-30T21:46:01.877Z,101362.25
2023-01-30T21:48:05.680Z,101354.53
2023-01-30T21:50:10.235Z,101360.59
2023-01-30T21:52:14.835Z,101356.34
2023-01-30T21:54:19.223Z,101368.38
2023-01-30T21:56:23.294Z,101375.25
2023-01-30T21:58:26.512Z,101363.09
2023-01-30T22:00:30.120Z,101367.31
2023-01-30T22:02:33.306Z,101370.69
2023-01-30T22:04:36.791Z,101367.09
2023-01-30T22:06:40.008Z,101367.88
2023-01-30T22:08:44.551Z,101369.47
2023-01-30T22:10:47.757Z,101365.03
2023-01-30T22:12:50.890Z,101372.72
2023-01-30T22:14:54.634Z,101375.22
2023-01-30T22:16:58.096Z,101384.72
2023-01-30T22:19:03.377Z,101376.03
2023-01-30T22:21:10.977Z,101383.84
2023-01-30T22:23:14.157Z,101382.16
2023-01-30T22:25:18.873Z,101374.41
2023-01-30T22:27:22.358Z,101388.25
2023-01-30T22:29:25.557Z,101388.25
2023-01-30T22:31:30.992Z,101402.91
2023-01-30T22:33:34.881Z,101396.00
2023-01-30T22:35:38.372Z,101393.38
2023-01-30T22:37:41.580Z,101407.22
2023-01-30T22:39:44.752Z,101393.44
2023-01-30T22:41:49.355Z,101409.88
2023-01-30T22:43:55.504Z,101409.06
2023-01-30T22:46:00.776Z,101420.44
2023-01-30T22:48:04.027Z,101422.22
2023-01-30T22:50:07.880Z,101423.19
2023-01-30T22:52:11.073Z,101421.56
2023-01-30T22:54:16.596Z,101421.63
2023-01-30T22:56:21.532Z,101423.50
2023-01-30T22:58:26.286Z,101420.97
2023-01-30T23:00:29.601Z,101415.09
2023-01-30T23:02:33.221Z,101420.34
2023-01-30T23:04:36.955Z,101423.00
2023-01-30T23:06:40.586Z,101430.00
2023-01-30T23:08:45.735Z,101430.94
2023-01-30T23:10:48.866Z,101418.94
2023-01-30T23:13:07.606Z,101412.06
2023-01-30T23:15:12.646Z,101412.13
2023-01-30T23:17:33.192Z,101412.13
2023-01-30T23:19:36.696Z,101408.66
2023-01-30T23:21:42.015Z,101411.25
2023-01-30T23:23:45.479Z,101403.41
2023-01-30T23:25:48.657Z,101405.09
2023-01-30T23:27:51.991Z,101406.78
2023-01-30T23:29:55.183Z,101404.16
2023-01-30T23:31:59.841Z,101411.84
2023-01-30T23:34:06.260Z,101411.84
2023-01-30T23:36:10.810Z,101419.53
2023-01-30T23:38:19.023Z,101412.63
2023-01-30T23:40:22.193Z,101420.34
2023-01-30T23:42:25.436Z,101413.41
2023-01-30T23:44:28.600Z,101403.78
2023-01-30T23:46:33.699Z,101402.00
2023-01-30T23:48:38.660Z,101414.91
2023-01-30T23:50:42.223Z,101414.84
2023-01-30T23:52:46.020Z,101430.38
2023-01-30T23:54:49.191Z,101426.03
2023-01-30T23:56:52.333Z,101427.78
2023-01-30T23:58:56.268Z,101425.19
